USNN 041100Z 30002MPS 9999 OVC010 M06/M08 Q1012 R03/32//65 NOSIG RMK QFE755
QNH:(hPa/inHg/mmHg)1012 / 29.88 / 759
QFE:(hPa/inHg/mmHg)1005 / 29.69 / 754
Temperature-6
Dew Point-8
Visibility> 10000
Weather
Cloud CoverOVC (1000);
Transition Height800 m./2900 ft.
Transition LevelFL50
SQUAWK